createdAt,value
2022-10-31T00:00:21.872Z,7.1
2022-10-31T00:05:28.278Z,7.1
2022-10-31T00:10:17.230Z,6.8
2022-10-31T00:15:23.357Z,6.9
2022-10-31T00:20:29.466Z,7.1
2022-10-31T00:25:18.336Z,6.6
2022-10-31T00:30:24.379Z,6.7
2022-10-31T00:35:30.462Z,6.8
2022-10-31T00:40:18.922Z,6.5
2022-10-31T00:45:24.944Z,7.6
2022-10-31T00:50:31.113Z,8.4
2022-10-31T00:55:20.040Z,7.1
2022-10-31T01:00:26.106Z,6.7
2022-10-31T01:05:32.507Z,6.3
2022-10-31T01:10:21.492Z,7.1
2022-10-31T01:15:27.730Z,6.7
2022-10-31T01:20:16.828Z,7.0
2022-10-31T01:25:22.679Z,7.0
2022-10-31T01:30:28.716Z,6.3
2022-10-31T01:35:17.771Z,6.2
2022-10-31T01:40:23.298Z,6.3
2022-10-31T01:45:29.176Z,6.0
2022-10-31T01:50:18.231Z,6.6
2022-10-31T01:55:26.386Z,6.2
2022-10-31T02:00:30.382Z,6.4
2022-10-31T02:05:18.656Z,6.2
2022-10-31T02:10:24.839Z,6.5
2022-10-31T02:15:30.902Z,6.4
2022-10-31T02:20:19.905Z,6.0
2022-10-31T02:25:25.987Z,6.2
2022-10-31T02:30:31.985Z,6.5
2022-10-31T02:35:21.052Z,6.0
2022-10-31T02:40:27.304Z,5.9
2022-10-31T02:45:16.365Z,6.1
2022-10-31T02:50:24.572Z,6.3
2022-10-31T02:55:28.482Z,6.8
2022-10-31T03:00:17.578Z,6.7
2022-10-31T03:05:22.824Z,6.2
2022-10-31T03:10:29.028Z,6.2
2022-10-31T03:15:17.930Z,6.1
2022-10-31T03:20:24.054Z,5.9
2022-10-31T03:25:30.089Z,5.8
2022-10-31T03:30:19.126Z,5.8
2022-10-31T03:35:25.193Z,5.2
2022-10-31T03:40:18.056Z,5.8
2022-10-31T03:45:19.684Z,5.7
2022-10-31T03:50:25.750Z,5.7
2022-10-31T03:55:31.822Z,6.0
2022-10-31T04:00:21.134Z,5.5
2022-10-31T04:05:27.251Z,5.4
2022-10-31T04:10:16.358Z,5.3
2022-10-31T04:15:22.502Z,5.9
2022-10-31T04:20:28.396Z,5.6
2022-10-31T04:25:18.199Z,6.2
2022-10-31T04:30:23.663Z,5.9
2022-10-31T04:35:29.543Z,5.5
2022-10-31T04:40:17.943Z,5.7
2022-10-31T04:45:23.954Z,6.2
2022-10-31T04:50:29.998Z,5.9
2022-10-31T04:55:19.175Z,6.5
2022-10-31T05:00:25.155Z,6.2
2022-10-31T05:05:31.478Z,5.9
2022-10-31T05:10:20.454Z,6.3
2022-10-31T05:15:26.619Z,6.4
2022-10-31T05:20:32.615Z,6.0
2022-10-31T05:25:21.812Z,5.7
2022-10-31T05:30:27.758Z,6.4
2022-10-31T05:35:16.741Z,7.0
2022-10-31T05:40:21.987Z,6.9
2022-10-31T05:45:27.987Z,6.9
2022-10-31T05:50:17.271Z,8.6
2022-10-31T05:55:23.219Z,6.9
2022-10-31T06:00:29.171Z,7.1
2022-10-31T06:05:17.495Z,6.6
2022-10-31T06:10:23.562Z,7.0
2022-10-31T06:15:29.888Z,6.0
2022-10-31T06:20:19.015Z,7.3
2022-10-31T06:25:24.708Z,5.6
2022-10-31T06:30:31.018Z,5.7
2022-10-31T06:35:19.842Z,6.3
2022-10-31T06:40:26.222Z,5.4
2022-10-31T06:45:32.372Z,5.6
2022-10-31T06:50:21.513Z,5.7
2022-10-31T06:55:27.435Z,5.3
2022-10-31T07:00:16.542Z,4.6
2022-10-31T07:05:21.815Z,4.6
2022-10-31T07:10:27.875Z,4.5
2022-10-31T07:15:17.045Z,4.6
2022-10-31T07:20:23.038Z,4.4
2022-10-31T07:25:29.028Z,4.7
2022-10-31T07:30:18.072Z,5.2
2022-10-31T07:35:25.034Z,5.3
2022-10-31T07:40:29.664Z,7.4
2022-10-31T07:45:18.816Z,7.8
2022-10-31T07:50:24.840Z,7.4
2022-10-31T07:55:30.781Z,6.9
2022-10-31T08:00:19.874Z,6.7
2022-10-31T08:05:26.218Z,5.8
2022-10-31T08:10:32.370Z,6.2
2022-10-31T08:15:21.226Z,5.5
2022-10-31T08:20:27.534Z,5.0
2022-10-31T08:25:16.357Z,4.4
2022-10-31T08:30:22.453Z,4.5
2022-10-31T08:35:28.502Z,5.0
2022-10-31T08:40:17.120Z,4.9
2022-10-31T08:45:23.151Z,5.2
2022-10-31T08:50:29.060Z,5.3
2022-10-31T08:55:18.054Z,5.1
2022-10-31T09:00:24.208Z,5.5
2022-10-31T09:05:30.353Z,5.4
2022-10-31T09:10:19.461Z,5.3
2022-10-31T09:15:25.504Z,5.2
2022-10-31T09:20:31.757Z,5.2
2022-10-31T09:25:20.470Z,5.2
2022-10-31T09:30:26.562Z,5.2
2022-10-31T09:35:32.719Z,5.5
2022-10-31T09:40:21.242Z,4.9
2022-10-31T09:45:27.454Z,4.4
2022-10-31T09:50:16.481Z,4.6
2022-10-31T09:55:22.434Z,4.4
2022-10-31T10:00:28.549Z,4.6
2022-10-31T10:05:16.755Z,4.5
2022-10-31T10:10:23.024Z,4.4
2022-10-31T10:15:29.081Z,4.6
2022-10-31T10:20:20.663Z,4.5
2022-10-31T10:25:24.073Z,4.5
2022-10-31T10:30:30.056Z,4.2
2022-10-31T10:35:19.302Z,4.2
2022-10-31T10:40:25.249Z,3.9
2022-10-31T10:45:32.144Z,3.9
2022-10-31T10:50:20.327Z,3.8
2022-10-31T10:55:26.529Z,3.7
2022-10-31T11:00:32.526Z,3.6
2022-10-31T11:05:20.799Z,3.6
2022-10-31T11:10:26.828Z,3.6
2022-10-31T11:15:15.856Z,3.1
2022-10-31T11:20:22.162Z,3.1
2022-10-31T11:25:28.225Z,3.4
2022-10-31T11:30:17.138Z,3.1
2022-10-31T11:35:23.238Z,3.1
2022-10-31T11:40:28.788Z,3.1
2022-10-31T11:45:17.830Z,3.3
2022-10-31T11:50:23.779Z,2.9
2022-10-31T11:55:29.815Z,3.3
2022-10-31T12:00:19.213Z,3.1
2022-10-31T12:05:25.248Z,3.1
2022-10-31T12:10:31.407Z,3.4
2022-10-31T12:15:20.464Z,3.1
2022-10-31T12:20:26.385Z,3.0
2022-10-31T12:25:32.719Z,3.2
2022-10-31T12:30:21.605Z,3.3
2022-10-31T12:35:27.645Z,3.1
2022-10-31T12:40:16.603Z,3.3
2022-10-31T12:45:22.463Z,3.2
2022-10-31T12:50:28.628Z,3.1
2022-10-31T12:55:17.441Z,3.4
2022-10-31T13:00:26.554Z,2.8
2022-10-31T13:05:28.889Z,3.1
2022-10-31T13:10:17.911Z,2.8
2022-10-31T13:15:23.990Z,3.0
2022-10-31T13:20:30.130Z,2.9
2022-10-31T13:25:19.053Z,3.0
2022-10-31T13:30:25.150Z,2.9
2022-10-31T13:35:31.351Z,3.9
2022-10-31T13:40:20.363Z,3.4
2022-10-31T13:45:25.671Z,3.4
2022-10-31T13:50:31.594Z,3.0
2022-10-31T13:55:20.617Z,3.2
2022-10-31T14:00:27.031Z,3.1
2022-10-31T14:05:16.099Z,2.8
2022-10-31T14:10:22.242Z,3.0
2022-10-31T14:15:28.394Z,3.2
2022-10-31T14:20:17.394Z,2.9
2022-10-31T14:25:23.354Z,3.2
2022-10-31T14:30:29.564Z,3.0
2022-10-31T14:35:21.353Z,3.0
2022-10-31T14:40:24.572Z,3.2
2022-10-31T14:45:30.038Z,3.1
2022-10-31T14:50:18.938Z,3.0
2022-10-31T14:55:25.025Z,2.8
2022-10-31T15:00:31.096Z,13.0
2022-10-31T15:05:20.603Z,13.3
2022-10-31T15:10:26.430Z,21.2
2022-10-31T15:15:32.498Z,8.9
2022-10-31T15:20:21.760Z,3.8
2022-10-31T15:25:27.837Z,3.1
2022-10-31T15:30:16.872Z,3.7
2022-10-31T15:35:22.954Z,3.0
2022-10-31T15:40:28.252Z,2.8
2022-10-31T15:45:17.283Z,2.7
2022-10-31T15:50:23.624Z,2.8
2022-10-31T15:55:29.543Z,2.9
2022-10-31T16:00:18.466Z,3.5
2022-10-31T16:05:23.802Z,3.3
2022-10-31T16:10:30.025Z,3.2
2022-10-31T16:15:18.935Z,3.7
2022-10-31T16:20:24.972Z,6.1
2022-10-31T16:25:31.017Z,4.0
2022-10-31T16:30:20.042Z,3.6
2022-10-31T16:35:26.207Z,5.3
2022-10-31T16:40:31.464Z,4.8
2022-10-31T16:45:20.673Z,3.7
2022-10-31T16:50:26.644Z,3.4
2022-10-31T16:55:15.633Z,3.4
2022-10-31T17:00:21.961Z,10.1
2022-10-31T17:05:28.626Z,4.1
2022-10-31T17:10:17.610Z,3.6
2022-10-31T17:15:23.693Z,6.9
2022-10-31T17:20:29.953Z,8.5
2022-10-31T17:25:18.759Z,6.4
2022-10-31T17:30:24.863Z,4.8
2022-10-31T17:35:31.198Z,5.8
2022-10-31T17:40:20.997Z,5.2
2022-10-31T17:45:25.945Z,4.7
2022-10-31T17:50:32.077Z,4.4
2022-10-31T17:55:20.985Z,3.8
2022-10-31T18:00:27.364Z,3.2
2022-10-31T18:05:16.372Z,9.6
2022-10-31T18:10:22.435Z,11.4
2022-10-31T18:15:28.466Z,4.3
2022-10-31T18:20:17.830Z,4.1
2022-10-31T18:25:23.584Z,4.3
2022-10-31T18:30:29.832Z,5.6
2022-10-31T18:35:18.914Z,4.3
2022-10-31T18:40:25.039Z,4.1
2022-10-31T18:45:41.576Z,5.3
2022-10-31T18:50:19.198Z,4.4
2022-10-31T18:55:25.395Z,4.5
2022-10-31T19:00:31.300Z,3.8
2022-10-31T19:05:19.626Z,3.4
2022-10-31T19:10:25.839Z,3.7
2022-10-31T19:15:31.750Z,5.2
2022-10-31T19:20:20.862Z,5.4
2022-10-31T19:25:26.871Z,6.4
2022-10-31T19:30:16.069Z,4.9
2022-10-31T19:35:22.000Z,4.4
2022-10-31T19:40:28.241Z,4.1
2022-10-31T19:45:17.535Z,3.9
2022-10-31T19:50:23.683Z,4.1
2022-10-31T19:55:29.610Z,5.2
2022-10-31T20:00:18.660Z,6.4
2022-10-31T20:05:24.611Z,4.3
2022-10-31T20:10:30.436Z,5.0
2022-10-31T20:15:19.511Z,5.5
2022-10-31T20:20:25.628Z,5.2
2022-10-31T20:25:31.812Z,4.0
2022-10-31T20:30:20.723Z,3.8
2022-10-31T20:35:26.758Z,4.0
2022-10-31T20:40:33.002Z,4.9
2022-10-31T20:45:21.756Z,4.7
2022-10-31T20:50:28.777Z,5.6
2022-10-31T20:55:16.849Z,4.7
2022-10-31T21:00:23.161Z,5.4
2022-10-31T21:05:28.821Z,5.1
2022-10-31T21:10:17.867Z,4.3
2022-10-31T21:15:23.918Z,4.4
2022-10-31T21:20:30.037Z,4.4
2022-10-31T21:25:19.023Z,4.9
2022-10-31T21:30:25.264Z,4.9
2022-10-31T21:35:31.317Z,4.8
2022-10-31T21:40:20.501Z,4.5
2022-10-31T21:45:26.267Z,5.0
2022-10-31T21:50:32.342Z,5.0
2022-10-31T21:55:21.296Z,5.1
2022-10-31T22:00:27.513Z,5.4
2022-10-31T22:05:15.685Z,5.3
2022-10-31T22:10:21.767Z,6.4
2022-10-31T22:15:27.838Z,5.6
2022-10-31T22:20:16.913Z,6.1
2022-10-31T22:25:22.924Z,8.0
2022-10-31T22:30:29.184Z,5.3
2022-10-31T22:35:18.024Z,4.5
2022-10-31T22:40:24.116Z,4.4
2022-10-31T22:45:29.618Z,4.4
2022-10-31T22:50:18.687Z,4.5
2022-10-31T22:55:24.777Z,4.4
2022-10-31T23:00:30.915Z,4.3
2022-10-31T23:05:20.367Z,4.7
2022-10-31T23:10:26.203Z,5.5
2022-10-31T23:15:32.269Z,6.0
2022-10-31T23:20:21.597Z,5.4
2022-10-31T23:25:27.369Z,7.0
2022-10-31T23:30:16.388Z,5.3
2022-10-31T23:35:22.491Z,5.4
2022-10-31T23:40:28.503Z,5.6
2022-10-31T23:45:16.980Z,5.5
2022-10-31T23:50:23.031Z,5.1
2022-10-31T23:55:29.122Z,5.4
